Time;durP1;ratioP1;P1;durP2;ratioP2;P2;SDS_P1;SDS_P2;PMS_P1;PMS_P2;Temp;Humidity;BMP_temperature;BMP_pressure;BME280_temperature;BME280_humidity;BME280_pressure;Samples;Min_cycle;Max_cycle;Signal;HPM_P1;HPM_P2
2021/09/29 00:00:58;;;;;;;;;;;;;;;21.88;30.78;98549.66;4869229;29;1608;-79
2021/09/29 00:03:24;;;;;;;;;;;;;;;21.83;30.86;98543.25;4869689;29;1907;-79
2021/09/29 00:05:49;;;;;;;;;;;;;;;21.85;30.92;98546.44;4869651;29;668;-79
2021/09/29 00:08:14;;;;;;;;;;;;;;;21.94;30.80;98547.94;4869617;29;584;-78
2021/09/29 00:10:40;;;;;;;;;;;;;;;21.85;30.65;98540.78;4869325;29;1542;-79
2021/09/29 00:13:05;;;;;;;;;;;;;;;21.81;31.05;98534.41;4869354;29;920;-79
2021/09/29 00:15:31;;;;;;;;;;;;;;;21.81;30.72;98531.56;4869091;29;999;-79
2021/09/29 00:17:56;;;;;;;;;;;;;;;22.28;31.38;98528.66;4869433;29;1101;-79
2021/09/29 00:20:22;;;;;;;;;;;;;;;22.54;31.70;98528.91;4868514;29;1566;-78
2021/09/29 00:22:47;;;;;;;;;;;;;;;22.57;31.58;98528.81;4869058;29;1911;-79
2021/09/29 00:25:13;;;;;;;;;;;;;;;22.21;32.04;98525.94;4869466;29;651;-79
2021/09/29 00:27:39;;;;;;;;;;;;;;;22.02;32.07;98535.19;4868439;29;875;-78
2021/09/29 00:30:05;;;;;;;;;;;;;;;22.01;31.94;98533.59;4868953;29;939;-79
2021/09/29 00:32:31;;;;;;;;;;;;;;;22.07;31.37;98537.53;4868066;29;1543;-79
2021/09/29 00:34:56;;;;;;;;;;;;;;;22.13;31.31;98532.22;4869288;29;928;-79
2021/09/29 00:37:22;;;;;;;;;;;;;;;22.12;31.57;98537.06;4869141;29;646;-78
2021/09/29 00:39:47;;;;;;;;;;;;;;;21.97;31.77;98535.72;4869068;29;695;-79
2021/09/29 00:42:13;;;;;;;;;;;;;;;21.89;31.87;98534.25;4867601;29;1962;-78
2021/09/29 00:44:38;;;;;;;;;;;;;;;21.89;31.66;98535.06;4868713;29;2182;-79
2021/09/29 00:47:04;;;;;;;;;;;;;;;22.02;31.66;98532.38;4869107;29;924;-79
2021/09/29 00:49:29;;;;;;;;;;;;;;;21.98;31.42;98537.31;4868869;29;657;-79
2021/09/29 00:51:55;;;;;;;;;;;;;;;22.02;31.49;98538.03;4868815;29;1562;-79
2021/09/29 00:54:20;;;;;;;;;;;;;;;22.07;31.31;98540.34;4868228;29;1582;-79
2021/09/29 00:56:46;;;;;;;;;;;;;;;21.81;31.54;98540.06;4867900;29;853;-79
2021/09/29 00:59:12;;;;;;;;;;;;;;;21.94;31.36;98531.72;4868224;29;1542;-78
2021/09/29 01:01:37;;;;;;;;;;;;;;;21.85;31.51;98531.47;4867894;29;1903;-79
2021/09/29 01:04:03;;;;;;;;;;;;;;;21.93;31.51;98535.00;4867975;29;712;-78
2021/09/29 01:06:35;;;;;;;;;;;;;;;21.90;31.63;98533.81;4868041;29;687;-78
2021/09/29 01:09:07;;;;;;;;;;;;;;;22.04;31.18;98538.41;4868655;29;664;-79
2021/09/29 01:11:34;;;;;;;;;;;;;;;22.07;31.24;98534.69;4867278;29;1551;-79
2021/09/29 01:14:35;;;;;;;;;;;;;;;21.91;31.35;98538.25;4867344;29;1042;-79
2021/09/29 01:17:00;;;;;;;;;;;;;;;21.98;31.13;98526.00;4867055;29;1073;-79
2021/09/29 01:19:38;;;;;;;;;;;;;;;21.89;31.44;98539.94;4868088;29;860;-79
2021/09/29 01:22:30;;;;;;;;;;;;;;;21.90;31.44;98538.69;4867877;29;1978;-79
2021/09/29 01:24:56;;;;;;;;;;;;;;;21.94;31.08;98536.59;4867655;29;1061;-79
2021/09/29 01:27:22;;;;;;;;;;;;;;;21.97;31.31;98535.72;4868032;29;875;-79
2021/09/29 01:29:47;;;;;;;;;;;;;;;21.93;31.11;98535.78;4867247;29;871;-79
2021/09/29 01:32:13;;;;;;;;;;;;;;;21.90;30.98;98539.47;4867182;29;1551;-78
2021/09/29 01:34:38;;;;;;;;;;;;;;;21.97;31.03;98541.41;4868370;29;612;-79
2021/09/29 01:37:05;;;;;;;;;;;;;;;21.91;30.96;98538.25;4868234;29;641;-79
2021/09/29 01:39:31;;;;;;;;;;;;;;;21.92;31.30;98539.06;4867389;29;646;-79
2021/09/29 01:41:57;;;;;;;;;;;;;;;22.04;31.04;98535.59;4866646;29;1895;-79
2021/09/29 01:44:22;;;;;;;;;;;;;;;21.96;30.83;98536.94;4867690;29;913;-79
2021/09/29 01:46:47;;;;;;;;;;;;;;;21.90;31.21;98530.19;4867916;29;1052;-79
2021/09/29 01:49:22;;;;;;;;;;;;;;;21.92;31.08;98527.75;4867368;29;657;-79
2021/09/29 01:51:48;;;;;;;;;;;;;;;21.97;31.09;98535.72;4867751;29;1609;-78
2021/09/29 01:54:14;;;;;;;;;;;;;;;22.05;30.50;98531.50;4867086;29;1436;-79
2021/09/29 01:56:40;;;;;;;;;;;;;;;22.10;30.82;98531.00;4866997;29;929;-79
2021/09/29 01:59:05;;;;;;;;;;;;;;;21.89;31.27;98534.25;4866620;29;1573;-78
2021/09/29 02:01:49;;;;;;;;;;;;;;;21.84;30.80;98527.84;4867743;29;1968;-79
2021/09/29 02:04:17;;;;;;;;;;;;;;;21.91;30.93;98523.28;4867703;29;613;-79
2021/09/29 02:06:43;;;;;;;;;;;;;;;21.87;31.24;98536.75;4866915;29;561;-79
2021/09/29 02:09:08;;;;;;;;;;;;;;;21.92;31.19;98533.41;4867194;29;648;-79
2021/09/29 02:11:34;;;;;;;;;;;;;;;21.98;30.70;98531.66;4867020;29;1974;-79
2021/09/29 02:13:59;;;;;;;;;;;;;;;21.88;31.23;98533.47;4867230;29;1064;-79
2021/09/29 02:16:25;;;;;;;;;;;;;;;21.92;30.94;98533.41;4867690;29;948;-79
2021/09/29 02:18:50;;;;;;;;;;;;;;;21.93;31.12;98530.13;4867712;29;661;-79
2021/09/29 02:21:16;;;;;;;;;;;;;;;21.78;31.06;98535.25;4867220;29;1573;-79
2021/09/29 02:23:41;;;;;;;;;;;;;;;21.91;31.11;98537.44;4867540;29;1915;-79
2021/09/29 02:26:06;;;;;;;;;;;;;;;21.91;31.06;98537.44;4867233;29;1109;-79
2021/09/29 02:28:32;;;;;;;;;;;;;;;21.92;30.99;98539.06;4867290;29;959;-79
2021/09/29 02:30:57;;;;;;;;;;;;;;;21.92;31.08;98537.03;4867155;29;1578;-79
2021/09/29 02:33:23;;;;;;;;;;;;;;;22.01;30.87;98542.91;4867437;29;681;-79
2021/09/29 02:35:48;;;;;;;;;;;;;;;21.88;30.87;98538.34;4867461;29;664;-79
2021/09/29 02:38:13;;;;;;;;;;;;;;;21.88;31.04;98544.00;4867392;29;684;-79
2021/09/29 02:40:39;;;;;;;;;;;;;;;22.03;30.90;98543.28;4867185;29;947;-79
2021/09/29 02:43:04;;;;;;;;;;;;;;;21.95;30.79;98546.69;4866669;29;1978;-79
2021/09/29 02:45:30;;;;;;;;;;;;;;;21.92;30.92;98550.41;4867299;29;845;-79
2021/09/29 02:47:55;;;;;;;;;;;;;;;21.94;30.77;98545.88;4866702;29;716;-79
2021/09/29 02:50:21;;;;;;;;;;;;;;;21.94;30.76;98547.94;4867123;29;1689;-79
2021/09/29 02:52:46;;;;;;;;;;;;;;;21.97;30.74;98547.06;4867327;29;456;-78
2021/09/29 02:55:12;;;;;;;;;;;;;;;21.89;30.78;98540.72;4866310;29;929;-78
2021/09/29 02:57:38;;;;;;;;;;;;;;;21.86;30.98;98541.59;4866989;29;906;-78
2021/09/29 03:00:04;;;;;;;;;;;;;;;22.00;30.66;98540.50;4867118;29;1527;-79
2021/09/29 03:02:29;;;;;;;;;;;;;;;21.96;30.77;98546.25;4866518;29;1973;-79
2021/09/29 03:04:54;;;;;;;;;;;;;;;21.98;31.00;98543.00;4866484;29;691;-78
2021/09/29 03:07:20;;;;;;;;;;;;;;;21.81;31.07;98540.06;4867210;29;684;-79
2021/09/29 03:09:45;;;;;;;;;;;;;;;21.81;31.20;98551.41;4866677;29;1578;-79
2021/09/29 03:12:11;;;;;;;;;;;;;;;21.93;31.07;98541.47;4866175;29;864;-79
2021/09/29 03:14:36;;;;;;;;;;;;;;;21.92;30.77;98544.75;4866246;29;1019;-79
2021/09/29 03:17:02;;;;;;;;;;;;;;;21.97;30.80;98545.03;4867192;29;953;-79
2021/09/29 03:19:28;;;;;;;;;;;;;;;21.96;30.80;98551.91;4868427;29;680;-78
2021/09/29 03:21:54;;;;;;;;;;;;;;;22.06;30.70;98555.78;4870140;29;1911;-79
2021/09/29 03:24:20;;;;;;;;;;;;;;;21.94;31.11;98545.09;4870266;29;896;-78
2021/09/29 03:26:48;;;;;;;;;;;;;;;21.99;30.73;98538.91;4869740;29;900;-79
2021/09/29 03:29:14;;;;;;;;;;;;;;;21.93;30.74;98543.50;4870313;29;1061;-79
2021/09/29 03:31:39;;;;;;;;;;;;;;;22.03;30.92;98539.66;4870408;29;1531;-79
2021/09/29 03:34:05;;;;;;;;;;;;;;;22.03;30.85;98539.66;4870266;29;680;-79
2021/09/29 03:36:30;;;;;;;;;;;;;;;22.12;30.62;98539.09;4869585;29;711;-79
2021/09/29 03:38:56;;;;;;;;;;;;;;;22.08;30.50;98547.66;4884529;29;929;-79
2021/09/29 03:41:22;;;;;;;;;;;;;;;22.06;30.85;98530.25;4869492;29;1614;-79
2021/09/29 03:43:47;;;;;;;;;;;;;;;21.99;30.79;98544.59;4870084;29;1973;-79
2021/09/29 03:46:13;;;;;;;;;;;;;;;22.16;30.40;98546.28;4870201;29;776;-78
2021/09/29 03:48:40;;;;;;;;;;;;;;;22.01;30.87;98544.94;4870039;29;609;-79
2021/09/29 03:51:05;;;;;;;;;;;;;;;21.83;31.05;98548.13;4869956;29;652;-79
2021/09/29 03:53:31;;;;;;;;;;;;;;;21.92;30.84;98550.41;4869397;29;1988;-79
2021/09/29 03:55:56;;;;;;;;;;;;;;;21.95;30.96;98560.84;4869664;29;869;-79
2021/09/29 03:58:22;;;;;;;;;;;;;;;21.96;30.83;98557.56;4869741;29;984;-79
2021/09/29 04:00:47;;;;;;;;;;;;;;;21.90;30.91;98559.31;4869765;29;648;-79
2021/09/29 04:03:13;;;;;;;;;;;;;;;22.01;30.71;98559.09;4869570;29;1974;-79
2021/09/29 04:05:38;;;;;;;;;;;;;;;22.15;30.69;98558.88;4869730;29;695;-79
2021/09/29 04:08:04;;;;;;;;;;;;;;;22.11;30.84;98563.81;4869408;29;1002;-78
2021/09/29 04:10:30;;;;;;;;;;;;;;;21.97;31.09;98569.75;4868638;29;912;-79
2021/09/29 04:12:55;;;;;;;;;;;;;;;21.87;31.19;98559.41;4869560;29;928;-78
2021/09/29 04:15:21;;;;;;;;;;;;;;;21.84;31.01;98567.53;4868799;29;1138;-78
2021/09/29 04:17:46;;;;;;;;;;;;;;;21.96;31.09;98568.13;4869785;29;691;-78
2021/09/29 04:20:11;;;;;;;;;;;;;;;21.89;30.96;98568.25;4869474;29;663;-78
2021/09/29 04:22:37;;;;;;;;;;;;;;;21.98;30.87;98568.50;4869045;29;1906;-78
2021/09/29 04:25:03;;;;;;;;;;;;;;;22.00;30.88;98574.50;4869182;29;901;-78
2021/09/29 04:27:28;;;;;;;;;;;;;;;21.73;31.26;98572.59;4869315;29;1059;-78
2021/09/29 04:29:54;;;;;;;;;;;;;;;22.08;30.84;98576.00;4868294;29;708;-78
2021/09/29 04:32:19;;;;;;;;;;;;;;;20.82;30.64;98369.97;4869376;29;708;-78
2021/09/29 04:34:44;;;;;;;;;;;;;;;21.95;30.86;98578.66;4869511;29;642;-78
2021/09/29 04:37:10;;;;;;;;;;;;;;;21.97;31.02;98592.41;4868789;29;1079;-78
2021/09/29 04:39:36;;;;;;;;;;;;;;;22.09;30.72;98583.25;4868485;29;1040;-78
2021/09/29 04:42:01;;;;;;;;;;;;;;;22.01;30.75;98576.13;4868727;29;1903;-79
2021/09/29 04:44:27;;;;;;;;;;;;;;;21.88;31.03;98583.66;4868988;29;683;-79
2021/09/29 04:46:52;;;;;;;;;;;;;;;21.99;31.03;98584.25;4868872;29;656;-79
2021/09/29 04:49:18;;;;;;;;;;;;;;;21.92;31.02;98585.19;4868805;29;688;-78
2021/09/29 04:51:43;;;;;;;;;;;;;;;21.78;31.22;98583.41;4868400;29;996;-79
2021/09/29 04:54:09;;;;;;;;;;;;;;;21.90;31.07;98586.84;4868512;29;959;-77
2021/09/29 04:56:34;;;;;;;;;;;;;;;21.95;30.88;98583.50;4868665;29;904;-79
2021/09/29 04:59:00;;;;;;;;;;;;;;;21.99;30.66;98587.09;4868617;29;724;-79
2021/09/29 05:01:26;;;;;;;;;;;;;;;21.88;30.97;98580.81;4868582;29;727;-78
2021/09/29 05:03:53;;;;;;;;;;;;;;;22.01;30.55;98581.78;4867960;29;852;-79
2021/09/29 05:06:18;;;;;;;;;;;;;;;22.11;30.53;98580.81;4867818;29;946;-78
2021/09/29 05:08:45;;;;;;;;;;;;;;;21.95;30.76;98580.69;4868227;29;876;-79
2021/09/29 05:11:20;;;;;;;;;;;;;;;21.95;30.53;98570.16;4867801;29;1103;-78
2021/09/29 05:13:45;;;;;;;;;;;;;;;21.77;30.79;98573.31;4867628;29;1276;-79
2021/09/29 05:16:11;;;;;;;;;;;;;;;21.94;30.69;98577.06;4868388;29;632;-78
2021/09/29 05:18:36;;;;;;;;;;;;;;;21.92;30.70;98567.41;4867443;29;874;-79
2021/09/29 05:21:02;;;;;;;;;;;;;;;21.94;30.58;98570.59;4867980;29;1057;-78
2021/09/29 05:23:27;;;;;;;;;;;;;;;21.95;30.66;98577.84;4866789;29;1986;-79
2021/09/29 05:25:53;;;;;;;;;;;;;;;21.97;30.56;98564.06;4868217;29;977;-79
2021/09/29 05:28:30;;;;;;;;;;;;;;;21.93;30.75;98571.81;4867616;29;609;-79
2021/09/29 05:30:57;;;;;;;;;;;;;;;21.92;30.91;98573.06;4867602;29;672;-78
2021/09/29 05:33:22;;;;;;;;;;;;;;;21.95;30.86;98566.50;4868139;29;723;-79
2021/09/29 05:35:48;;;;;;;;;;;;;;;22.06;30.43;98581.28;4867748;29;1065;-79
2021/09/29 05:38:13;;;;;;;;;;;;;;;22.06;30.45;98584.09;4867759;29;925;-78
2021/09/29 05:40:39;;;;;;;;;;;;;;;21.99;31.02;98589.91;4867972;29;1098;-79
2021/09/29 05:43:04;;;;;;;;;;;;;;;21.90;31.04;98587.66;4867683;29;1915;-79
2021/09/29 05:45:30;;;;;;;;;;;;;;;21.82;31.17;98592.66;4867280;29;649;-79
2021/09/29 05:47:58;;;;;;;;;;;;;;;21.98;30.99;98596.81;4867850;29;701;-79
2021/09/29 05:50:23;;;;;;;;;;;;;;;22.04;30.84;98600.75;4867522;29;837;-79
2021/09/29 05:52:48;;;;;;;;;;;;;;;21.95;31.09;98603.34;4867551;29;932;-79
2021/09/29 05:55:14;;;;;;;;;;;;;;;21.88;31.00;98600.66;4867880;29;960;-79
2021/09/29 05:57:39;;;;;;;;;;;;;;;21.94;30.89;98610.25;4867819;29;800;-79
2021/09/29 06:00:05;;;;;;;;;;;;;;;22.22;30.26;98609.72;4868079;29;677;-79
2021/09/29 06:02:36;;;;;;;;;;;;;;;21.92;31.05;98607.06;4867069;29;1903;-79
2021/09/29 06:05:02;;;;;;;;;;;;;;;21.92;30.82;98612.72;4867402;29;1154;-79
2021/09/29 06:07:28;;;;;;;;;;;;;;;21.76;30.91;98611.38;4867591;29;991;-79
2021/09/29 06:09:53;;;;;;;;;;;;;;;21.89;30.82;98613.59;4867627;29;946;-79
2021/09/29 06:12:19;;;;;;;;;;;;;;;21.96;30.92;98617.06;4867725;29;636;-79
2021/09/29 06:14:49;;;;;;;;;;;;;;;21.93;30.84;98614.34;4867341;29;1150;-79
2021/09/29 06:17:26;;;;;;;;;;;;;;;22.06;30.69;98612.44;4867693;29;676;-79
2021/09/29 06:19:52;;;;;;;;;;;;;;;22.02;30.81;98625.88;4867224;29;917;-77
2021/09/29 06:22:18;;;;;;;;;;;;;;;22.12;30.64;98619.25;4866272;29;1980;-78
2021/09/29 06:24:43;;;;;;;;;;;;;;;22.02;30.78;98623.03;4866503;29;918;-78
2021/09/29 06:27:09;;;;;;;;;;;;;;;21.98;30.88;98614.63;4867438;29;723;-78
2021/09/29 06:29:35;;;;;;;;;;;;;;;21.95;30.91;98626.03;4866725;29;664;-78
2021/09/29 06:32:02;;;;;;;;;;;;;;;21.88;31.18;98629.00;4867543;29;696;-78
2021/09/29 06:34:28;;;;;;;;;;;;;;;21.85;31.19;98625.78;4851559;29;1132;-77
2021/09/29 06:36:53;;;;;;;;;;;;;;;21.88;30.71;98634.66;4850718;29;876;-78
2021/09/29 06:39:19;;;;;;;;;;;;;;;21.81;30.85;98629.91;4867291;29;1012;-78
2021/09/29 06:41:45;;;;;;;;;;;;;;;21.78;30.94;98640.06;4867458;29;2024;-77
2021/09/29 06:44:11;;;;;;;;;;;;;;;21.85;30.74;98642.78;4867130;29;1245;-77
2021/09/29 06:46:37;;;;;;;;;;;;;;;21.84;30.68;98637.53;4866394;29;1315;-78
2021/09/29 06:49:02;;;;;;;;;;;;;;;21.72;30.62;98633.31;4865986;29;968;-78
2021/09/29 06:51:28;;;;;;;;;;;;;;;21.82;31.09;98637.19;4866306;29;917;-78
2021/09/29 06:53:53;;;;;;;;;;;;;;;22.28;31.41;98641.25;4867647;29;857;-78
2021/09/29 06:56:19;;;;;;;;;;;;;;;22.57;31.56;98641.47;4870964;29;703;-77
2021/09/29 06:58:45;;;;;;;;;;;;;;;22.51;31.96;98648.88;4870920;29;720;-78
2021/09/29 07:01:11;;;;;;;;;;;;;;;22.28;31.90;98642.03;4870811;29;668;-78
2021/09/29 07:03:36;;;;;;;;;;;;;;;22.07;31.69;98639.53;4870378;29;1907;-78
2021/09/29 07:06:02;;;;;;;;;;;;;;;22.09;31.51;98639.94;4870425;29;879;-78
2021/09/29 07:08:27;;;;;;;;;;;;;;;21.97;31.67;98643.41;4870644;29;988;-78
2021/09/29 07:10:53;;;;;;;;;;;;;;;21.84;31.75;98641.16;4870684;29;649;-78
2021/09/29 07:13:18;;;;;;;;;;;;;;;21.79;31.72;98638.84;4869627;29;796;-78
2021/09/29 07:15:44;;;;;;;;;;;;;;;21.91;31.46;98639.44;4870595;29;1096;-78
2021/09/29 07:18:10;;;;;;;;;;;;;;;21.81;31.47;98644.88;4870190;29;1062;-78
2021/09/29 07:20:36;;;;;;;;;;;;;;;21.84;31.25;98641.16;4870186;29;964;-79
2021/09/29 07:23:04;;;;;;;;;;;;;;;21.79;31.18;98655.84;4870408;29;1981;-78
2021/09/29 07:25:30;;;;;;;;;;;;;;;21.85;31.08;98650.47;4869625;29;909;-78
2021/09/29 07:27:57;;;;;;;;;;;;;;;21.73;31.15;98648.25;4870353;29;664;-78
2021/09/29 07:30:22;;;;;;;;;;;;;;;21.76;31.14;98648.22;4869567;29;625;-78
2021/09/29 07:32:51;;;;;;;;;;;;;;;21.93;30.56;98656.84;4869920;29;941;-78
2021/09/29 07:35:17;;;;;;;;;;;;;;;21.87;30.67;98658.56;4869991;29;954;-78
2021/09/29 07:37:42;;;;;;;;;;;;;;;21.77;30.69;98663.97;4870137;29;1054;-78
2021/09/29 07:40:08;;;;;;;;;;;;;;;21.78;30.79;98665.56;4869483;29;1256;-77
2021/09/29 07:42:33;;;;;;;;;;;;;;;22.33;31.29;98650.03;4869092;29;1895;-78
2021/09/29 07:44:59;;;;;;;;;;;;;;;22.39;31.41;98669.38;4870108;29;684;-78
2021/09/29 07:47:24;;;;;;;;;;;;;;;22.57;31.84;98667.78;4869711;29;991;-77
2021/09/29 07:49:50;;;;;;;;;;;;;;;22.32;31.69;98665.44;4870119;29;935;-77
2021/09/29 07:52:15;;;;;;;;;;;;;;;22.12;31.77;98658.91;4869859;29;1004;-78
2021/09/29 07:54:40;;;;;;;;;;;;;;;22.12;31.51;98667.41;4869946;29;688;-78
2021/09/29 07:57:09;;;;;;;;;;;;;;;21.96;31.44;98661.63;4869803;29;637;-77
2021/09/29 07:59:34;;;;;;;;;;;;;;;21.91;31.42;98676.28;4869823;29;676;-78
2021/09/29 08:02:00;;;;;;;;;;;;;;;21.89;31.07;98673.09;4869245;29;1895;-77
2021/09/29 08:04:25;;;;;;;;;;;;;;;21.90;31.19;98671.84;4869036;29;955;-77
2021/09/29 08:06:51;;;;;;;;;;;;;;;21.98;30.95;98676.16;4869642;29;818;-77
2021/09/29 08:09:16;;;;;;;;;;;;;;;21.91;31.06;98671.41;4869102;29;797;-78
2021/09/29 08:11:42;;;;;;;;;;;;;;;21.90;30.83;98672.66;4869524;29;807;-77
2021/09/29 08:14:07;;;;;;;;;;;;;;;21.84;30.89;98669.50;4869342;29;989;-77
2021/09/29 08:16:33;;;;;;;;;;;;;;;21.74;31.10;98669.69;4853364;29;1385;-77
2021/09/29 08:18:58;;;;;;;;;;;;;;;21.70;30.98;98664.06;4869168;29;929;-77
2021/09/29 08:21:28;;;;;;;;;;;;;;;21.73;30.61;98659.59;4869444;29;867;-78
2021/09/29 08:23:57;;;;;;;;;;;;;;;21.78;30.48;98659.91;4869296;29;1907;-77
2021/09/29 08:26:42;;;;;;;;;;;;;;;21.80;30.67;98656.63;4869312;29;684;-77
2021/09/29 08:29:22;;;;;;;;;;;;;;;21.79;30.61;98655.84;4869361;29;676;-78
2021/09/29 08:34:19;;;;;;;;;;;;;;;21.80;30.50;98663.09;4868345;29;943;-76
2021/09/29 08:44:29;;;;;;;;;;;;;;;21.77;30.44;98658.31;4869092;29;661;-78
2021/09/29 08:52:30;;;;;;;;;;;;;;;21.76;30.41;98651.03;4868090;29;1213;-78
2021/09/29 09:16:31;;;;;;;;;;;;;;;21.88;30.92;98634.66;4867853;29;962;-77
2021/09/29 09:18:57;;;;;;;;;;;;;;;21.81;31.10;98647.72;4868057;29;888;-78
2021/09/29 09:21:22;;;;;;;;;;;;;;;21.73;31.08;98643.41;4868344;29;1090;-77
2021/09/29 09:23:48;;;;;;;;;;;;;;;21.68;30.91;98643.88;4867728;29;1961;-77
2021/09/29 09:26:16;;;;;;;;;;;;;;;21.64;31.30;98637.47;4867092;29;1174;-77
2021/09/29 09:28:41;;;;;;;;;;;;;;;21.81;30.88;98650.56;4867449;29;1187;-78
2021/09/29 09:31:08;;;;;;;;;;;;;;;21.85;30.70;98644.81;4867789;29;1186;-77
2021/09/29 09:33:33;;;;;;;;;;;;;;;21.82;30.74;98649.31;4867000;29;924;-78
2021/09/29 09:35:59;;;;;;;;;;;;;;;21.72;30.59;98655.97;4867832;29;988;-77
2021/09/29 09:38:26;;;;;;;;;;;;;;;21.72;30.84;98650.28;4868273;29;1061;-77
2021/09/29 09:40:58;;;;;;;;;;;;;;;21.72;30.48;98655.97;4867105;29;1237;-77
2021/09/29 09:43:25;;;;;;;;;;;;;;;21.70;30.70;98652.75;4867219;29;1907;-78
2021/09/29 09:45:50;;;;;;;;;;;;;;;21.79;30.36;98655.84;4867440;29;642;-78
2021/09/29 09:48:23;;;;;;;;;;;;;;;21.81;30.52;98656.22;4867650;29;969;-78
2021/09/29 09:50:49;;;;;;;;;;;;;;;21.77;30.34;98666.81;4866690;29;837;-77
2021/09/29 09:53:15;;;;;;;;;;;;;;;21.79;30.04;98655.03;4867983;29;944;-77
2021/09/29 09:55:41;;;;;;;;;;;;;;;22.00;30.69;98671.66;4868206;29;671;-77
2021/09/29 09:58:06;;;;;;;;;;;;;;;22.24;31.05;98663.19;4867966;29;704;-77
2021/09/29 10:00:34;;;;;;;;;;;;;;;22.47;30.93;98668.00;4867868;29;703;-77
2021/09/29 10:03:01;;;;;;;;;;;;;;;22.12;30.87;98669.47;4867435;29;1997;-77
2021/09/29 10:05:28;;;;;;;;;;;;;;;21.91;31.03;98667.78;4867655;29;828;-78
2021/09/29 10:07:54;;;;;;;;;;;;;;;21.90;30.66;98660.50;4867138;29;1100;-78
2021/09/29 10:29:03;;;;;;;;;;;;;;;21.73;30.38;98656.75;4858307;29;1205;-77
2021/09/29 10:34:06;;;;;;;;;;;;;;;21.61;30.63;98649.69;4871443;29;644;-77
2021/09/29 10:44:43;;;;;;;;;;;;;;;22.05;30.80;98651.31;4870540;29;629;-78
2021/09/29 11:08:52;;;;;;;;;;;;;;;21.78;30.14;98654.22;4870318;29;917;-78
2021/09/29 11:28:03;;;;;;;;;;;;;;;21.78;30.43;98645.75;4870039;29;822;-79
2021/09/29 11:30:32;;;;;;;;;;;;;;;21.77;30.29;98640.50;4870520;29;604;-78
2021/09/29 11:33:18;;;;;;;;;;;;;;;21.78;30.33;98642.91;4869703;29;647;-78
2021/09/29 12:08:30;;;;;;;;;;;;;;;21.74;30.25;98652.69;4869110;29;629;-78
2021/09/29 12:11:10;;;;;;;;;;;;;;;21.70;30.36;98657.59;4869181;29;809;-78
2021/09/29 12:13:43;;;;;;;;;;;;;;;21.79;30.12;98650.16;4869282;29;1032;-78
2021/09/29 12:16:11;;;;;;;;;;;;;;;21.89;30.05;98653.25;4869915;29;1086;-78
2021/09/29 12:18:36;;;;;;;;;;;;;;;21.81;30.28;98659.06;4869079;29;684;-78
2021/09/29 12:21:02;;;;;;;;;;;;;;;21.71;30.36;98657.19;4869776;29;635;-78
2021/09/29 12:23:27;;;;;;;;;;;;;;;21.85;30.27;98659.75;4868968;29;1998;-77
2021/09/29 12:26:06;;;;;;;;;;;;;;;21.91;29.82;98664.94;4869644;29;656;-78
2021/09/29 12:28:46;;;;;;;;;;;;;;;21.69;30.16;98662.47;4869446;29;996;-77
2021/09/29 12:33:52;;;;;;;;;;;;;;;21.79;29.82;98667.16;4869544;29;656;-77
2021/09/29 12:36:27;;;;;;;;;;;;;;;21.85;29.84;98665.44;4868871;29;731;-78
2021/09/29 12:38:53;;;;;;;;;;;;;;;21.69;30.07;98668.13;4868483;29;928;-77
2021/09/29 12:41:18;;;;;;;;;;;;;;;21.69;30.02;98668.13;4869689;29;728;-77
2021/09/29 12:43:44;;;;;;;;;;;;;;;22.00;30.39;98670.88;4867941;29;1980;-78
2021/09/29 12:46:13;;;;;;;;;;;;;;;22.21;30.22;98667.66;4868933;29;934;-78
2021/09/29 12:48:41;;;;;;;;;;;;;;;22.61;29.70;98681.91;4869143;29;980;-78
2021/09/29 12:51:09;;;;;;;;;;;;;;;22.10;30.43;98687.69;4868196;29;675;-78
2021/09/29 12:56:33;;;;;;;;;;;;;;;21.95;31.00;98680.66;4838586;29;1301;-78
2021/09/29 12:58:58;;;;;;;;;;;;;;;21.89;30.82;98681.59;4868259;29;969;-77
2021/09/29 13:01:23;;;;;;;;;;;;;;;21.97;30.49;98678.22;4868634;29;869;-78
2021/09/29 13:03:49;;;;;;;;;;;;;;;21.91;30.93;98679.09;4868864;29;1989;-77
2021/09/29 13:06:14;;;;;;;;;;;;;;;22.13;30.74;98677.56;4869111;29;693;-78
2021/09/29 13:08:40;;;;;;;;;;;;;;;22.43;31.23;98678.59;4868845;29;658;-77
2021/09/29 13:11:06;;;;;;;;;;;;;;;22.66;30.89;98681.41;4868808;29;731;-77
2021/09/29 13:13:34;;;;;;;;;;;;;;;22.29;31.23;98682.53;4868455;29;937;-78
2021/09/29 13:16:01;;;;;;;;;;;;;;;22.22;31.19;98683.44;4868413;29;1209;-77
2021/09/29 13:18:36;;;;;;;;;;;;;;;22.02;31.60;98679.72;4868840;29;988;-76
2021/09/29 13:21:11;;;;;;;;;;;;;;;22.04;31.44;98682.94;4868846;29;755;-76
2021/09/29 13:23:52;;;;;;;;;;;;;;;21.93;31.45;98685.16;4868906;29;1915;-78
2021/09/29 13:37:12;;;;;;;;;;;;;;;21.87;31.61;98661.41;4868387;29;641;-78
2021/09/29 13:39:38;;;;;;;;;;;;;;;22.02;31.19;98674.06;4868363;29;670;-78
2021/09/29 13:42:03;;;;;;;;;;;;;;;22.16;30.85;98673.84;4868264;29;1895;-78
2021/09/29 13:44:29;;;;;;;;;;;;;;;22.21;30.53;98676.16;4868086;29;996;-77
2021/09/29 13:46:54;;;;;;;;;;;;;;;21.95;31.16;98677.81;4867867;29;858;-77
2021/09/29 13:49:22;;;;;;;;;;;;;;;21.99;31.14;98678.56;4868227;29;742;-78
2021/09/29 13:51:50;;;;;;;;;;;;;;;21.93;31.08;98676.66;4868254;29;683;-78
2021/09/29 13:54:22;;;;;;;;;;;;;;;22.01;30.81;98678.91;4867523;29;749;-77
2021/09/29 14:02:23;;;;;;;;;;;;;;;21.71;31.31;98688.34;4868174;29;809;-77
2021/09/29 14:31:39;;;;;;;;;;;;;;;21.83;31.14;98696.25;4867503;29;1111;-78
2021/09/29 14:34:05;;;;;;;;;;;;;;;21.92;31.08;98698.53;4867376;29;886;-77
2021/09/29 14:36:30;;;;;;;;;;;;;;;21.97;30.99;98702.91;4867759;29;743;-78
2021/09/29 14:38:56;;;;;;;;;;;;;;;21.97;30.96;98697.25;4867778;29;624;-78
2021/09/29 14:41:21;;;;;;;;;;;;;;;21.82;31.12;98694.66;4866640;29;787;-78
2021/09/29 14:43:47;;;;;;;;;;;;;;;21.96;30.69;98698.44;4867583;29;1966;-77
2021/09/29 14:46:12;;;;;;;;;;;;;;;22.03;30.45;98704.00;4867280;29;961;-78
2021/09/29 14:48:37;;;;;;;;;;;;;;;22.04;30.72;98697.09;4867437;29;857;-77
2021/09/29 14:51:08;;;;;;;;;;;;;;;22.06;30.35;98697.47;4867591;29;978;-78
2021/09/29 14:53:34;;;;;;;;;;;;;;;22.13;30.44;98702.25;4866945;29;704;-78
2021/09/29 14:56:00;;;;;;;;;;;;;;;22.07;30.64;98696.22;4867593;29;617;-78
2021/09/29 14:58:26;;;;;;;;;;;;;;;21.90;30.75;98694.50;4866551;29;810;-78
2021/09/29 15:00:52;;;;;;;;;;;;;;;21.98;30.47;98696.00;4867440;29;1043;-77
2021/09/29 15:03:17;;;;;;;;;;;;;;;22.05;30.44;98695.88;4867127;29;1895;-78
2021/09/29 15:05:43;;;;;;;;;;;;;;;21.94;30.58;98695.25;4867377;29;1115;-77
2021/09/29 15:08:08;;;;;;;;;;;;;;;22.08;30.63;98700.69;4867400;29;673;-77
2021/09/29 15:10:33;;;;;;;;;;;;;;;21.91;30.85;98691.25;4867519;29;594;-77
2021/09/29 15:13:03;;;;;;;;;;;;;;;21.99;30.88;98687.06;4867474;29;667;-77
2021/09/29 15:15:34;;;;;;;;;;;;;;;21.97;30.56;98688.75;4869149;29;1037;-77
2021/09/29 15:18:06;;;;;;;;;;;;;;;21.89;30.62;98687.25;4870628;29;978;-77
2021/09/29 15:23:13;;;;;;;;;;;;;;;22.04;30.52;98694.28;4870640;29;2279;-76
2021/09/29 15:59:00;;;;;;;;;;;;;;;22.20;30.59;98702.91;4869199;29;1142;-78
2021/09/29 16:03:57;;;;;;;;;;;;;;;21.99;30.94;98711.78;4869284;29;1899;-78
2021/09/29 16:06:31;;;;;;;;;;;;;;;21.97;30.61;98714.25;4868980;29;1213;-78
2021/09/29 16:35:05;;;;;;;;;;;;;;;21.97;30.83;98745.41;4869064;29;870;-77
2021/09/29 16:37:31;;;;;;;;;;;;;;;22.08;30.90;98746.03;4868218;29;921;-78
2021/09/29 16:39:57;;;;;;;;;;;;;;;21.96;30.95;98750.25;4869323;29;684;-78
2021/09/29 16:42:22;;;;;;;;;;;;;;;21.98;30.70;98752.69;4869135;29;1899;-77
2021/09/29 16:44:48;;;;;;;;;;;;;;;21.88;30.82;98759.31;4869311;29;657;-78
2021/09/29 16:47:13;;;;;;;;;;;;;;;22.00;30.54;98761.53;4869197;29;664;-78
2021/09/29 16:49:40;;;;;;;;;;;;;;;21.89;30.66;98760.91;4867459;29;1215;-78
2021/09/29 16:52:13;;;;;;;;;;;;;;;21.87;30.70;98757.72;4867584;29;1195;-77
2021/09/29 16:54:38;;;;;;;;;;;;;;;21.97;30.56;98768.09;4868095;29;1140;-78
2021/09/29 16:57:10;;;;;;;;;;;;;;;22.05;30.50;98769.56;4867497;29;1275;-77
2021/09/29 17:02:10;;;;;;;;;;;;;;;22.06;30.65;98762.66;4868745;29;1895;-76
2021/09/29 17:04:35;;;;;;;;;;;;;;;22.06;30.58;98773.97;4867451;29;980;-77
2021/09/29 17:07:01;;;;;;;;;;;;;;;21.96;30.43;98777.78;4868901;29;917;-75
2021/09/29 17:09:27;;;;;;;;;;;;;;;21.89;30.63;98781.53;4867844;29;796;-76
2021/09/29 17:11:52;;;;;;;;;;;;;;;21.87;30.86;98783.22;4868756;29;621;-77
2021/09/29 17:14:18;;;;;;;;;;;;;;;21.93;30.79;98787.16;4868537;29;1199;-77